sensor_id;sensor_type;location;lat;lon;timestamp;temperature;humidity
5919;DHT22;2985;48.142;16.344;2022-11-20T00:01:43;1.70;99.90
5919;DHT22;2985;48.142;16.344;2022-11-20T00:06:52;1.70;99.90
5919;DHT22;2985;48.142;16.344;2022-11-20T00:12:02;1.70;99.90
5919;DHT22;2985;48.142;16.344;2022-11-20T00:17:11;1.70;99.90
5919;DHT22;2985;48.142;16.344;2022-11-20T00:22:20;1.60;99.90
5919;DHT22;2985;48.142;16.344;2022-11-20T00:27:30;1.70;99.90
5919;DHT22;2985;48.142;16.344;2022-11-20T00:32:39;1.70;99.90
5919;DHT22;2985;48.142;16.344;2022-11-20T00:37:48;1.60;99.90
5919;DHT22;2985;48.142;16.344;2022-11-20T00:42:57;1.60;99.90
5919;DHT22;2985;48.142;16.344;2022-11-20T00:48:06;1.70;99.90
5919;DHT22;2985;48.142;16.344;2022-11-20T00:53:15;1.70;99.90
5919;DHT22;2985;48.142;16.344;2022-11-20T00:58:27;1.70;99.90
5919;DHT22;2985;48.142;16.344;2022-11-20T01:03:43;1.70;99.90
5919;DHT22;2985;48.142;16.344;2022-11-20T01:08:55;1.70;99.90
5919;DHT22;2985;48.142;16.344;2022-11-20T01:14:06;1.70;99.90
5919;DHT22;2985;48.142;16.344;2022-11-20T01:19:19;1.70;99.90
5919;DHT22;2985;48.142;16.344;2022-11-20T01:24:29;1.70;99.90
5919;DHT22;2985;48.142;16.344;2022-11-20T01:29:39;1.80;99.90
5919;DHT22;2985;48.142;16.344;2022-11-20T01:34:48;1.80;99.90
5919;DHT22;2985;48.142;16.344;2022-11-20T01:39:57;1.80;99.90
5919;DHT22;2985;48.142;16.344;2022-11-20T01:45:50;1.80;99.90
5919;DHT22;2985;48.142;16.344;2022-11-20T01:50:55;1.70;99.90
5919;DHT22;2985;48.142;16.344;2022-11-20T01:56:09;1.80;99.90
5919;DHT22;2985;48.142;16.344;2022-11-20T02:01:20;1.70;99.90
5919;DHT22;2985;48.142;16.344;2022-11-20T02:06:32;1.70;99.90
5919;DHT22;2985;48.142;16.344;2022-11-20T02:11:44;1.70;99.90
5919;DHT22;2985;48.142;16.344;2022-11-20T02:16:54;1.70;99.90
5919;DHT22;2985;48.142;16.344;2022-11-20T02:22:31;1.70;99.90
5919;DHT22;2985;48.142;16.344;2022-11-20T02:27:44;1.70;99.90
5919;DHT22;2985;48.142;16.344;2022-11-20T02:32:53;1.70;99.90
5919;DHT22;2985;48.142;16.344;2022-11-20T02:38:03;1.70;99.90
5919;DHT22;2985;48.142;16.344;2022-11-20T02:43:12;1.70;99.90
5919;DHT22;2985;48.142;16.344;2022-11-20T02:48:21;1.80;99.90
5919;DHT22;2985;48.142;16.344;2022-11-20T02:53:31;1.80;99.90
5919;DHT22;2985;48.142;16.344;2022-11-20T02:58:40;1.80;99.90
5919;DHT22;2985;48.142;16.344;2022-11-20T03:03:49;1.80;99.90
5919;DHT22;2985;48.142;16.344;2022-11-20T03:08:59;1.80;99.90
5919;DHT22;2985;48.142;16.344;2022-11-20T03:14:08;1.80;99.90
5919;DHT22;2985;48.142;16.344;2022-11-20T03:19:17;1.80;99.90
5919;DHT22;2985;48.142;16.344;2022-11-20T03:24:27;1.80;99.90
5919;DHT22;2985;48.142;16.344;2022-11-20T03:29:36;1.80;99.90
5919;DHT22;2985;48.142;16.344;2022-11-20T03:34:46;1.80;99.90
5919;DHT22;2985;48.142;16.344;2022-11-20T03:39:55;1.80;99.90
5919;DHT22;2985;48.142;16.344;2022-11-20T03:45:04;1.80;99.90
5919;DHT22;2985;48.142;16.344;2022-11-20T03:50:14;1.70;99.90
5919;DHT22;2985;48.142;16.344;2022-11-20T03:55:24;1.70;99.90
5919;DHT22;2985;48.142;16.344;2022-11-20T04:00:33;1.80;99.90
5919;DHT22;2985;48.142;16.344;2022-11-20T04:05:42;1.70;99.90
5919;DHT22;2985;48.142;16.344;2022-11-20T04:10:51;1.80;99.90
5919;DHT22;2985;48.142;16.344;2022-11-20T04:16:00;1.70;99.90
5919;DHT22;2985;48.142;16.344;2022-11-20T04:21:10;1.70;99.90
5919;DHT22;2985;48.142;16.344;2022-11-20T04:26:20;1.70;99.90
5919;DHT22;2985;48.142;16.344;2022-11-20T04:31:33;1.70;99.90
5919;DHT22;2985;48.142;16.344;2022-11-20T04:36:42;1.70;99.90
5919;DHT22;2985;48.142;16.344;2022-11-20T04:41:51;1.80;99.90
5919;DHT22;2985;48.142;16.344;2022-11-20T04:47:20;1.70;99.90
5919;DHT22;2985;48.142;16.344;2022-11-20T04:52:29;1.70;99.90
5919;DHT22;2985;48.142;16.344;2022-11-20T04:57:38;1.70;99.90
5919;DHT22;2985;48.142;16.344;2022-11-20T05:02:48;1.70;99.90
5919;DHT22;2985;48.142;16.344;2022-11-20T05:07:57;1.70;99.90
5919;DHT22;2985;48.142;16.344;2022-11-20T05:13:07;1.60;99.90
5919;DHT22;2985;48.142;16.344;2022-11-20T05:18:16;1.70;99.90
5919;DHT22;2985;48.142;16.344;2022-11-20T05:23:26;1.60;99.90
5919;DHT22;2985;48.142;16.344;2022-11-20T05:28:35;1.70;99.90
5919;DHT22;2985;48.142;16.344;2022-11-20T05:33:45;1.70;99.90
5919;DHT22;2985;48.142;16.344;2022-11-20T05:38:54;1.70;99.90
5919;DHT22;2985;48.142;16.344;2022-11-20T05:44:03;1.80;99.90
5919;DHT22;2985;48.142;16.344;2022-11-20T05:49:13;1.90;99.90
5919;DHT22;2985;48.142;16.344;2022-11-20T05:54:22;1.80;99.90
5919;DHT22;2985;48.142;16.344;2022-11-20T05:59:31;1.90;99.90
5919;DHT22;2985;48.142;16.344;2022-11-20T06:04:40;1.90;99.90
5919;DHT22;2985;48.142;16.344;2022-11-20T06:09:50;1.90;99.90
5919;DHT22;2985;48.142;16.344;2022-11-20T06:14:59;2.00;99.90
5919;DHT22;2985;48.142;16.344;2022-11-20T06:20:09;2.00;99.90
5919;DHT22;2985;48.142;16.344;2022-11-20T06:25:19;2.00;99.90
5919;DHT22;2985;48.142;16.344;2022-11-20T06:30:28;2.00;99.90
5919;DHT22;2985;48.142;16.344;2022-11-20T06:35:37;2.00;99.90
5919;DHT22;2985;48.142;16.344;2022-11-20T06:40:46;2.00;99.90
5919;DHT22;2985;48.142;16.344;2022-11-20T06:45:57;2.00;99.90
5919;DHT22;2985;48.142;16.344;2022-11-20T06:51:07;2.00;99.90
5919;DHT22;2985;48.142;16.344;2022-11-20T06:56:16;1.90;99.90
5919;DHT22;2985;48.142;16.344;2022-11-20T07:01:26;1.80;99.90
5919;DHT22;2985;48.142;16.344;2022-11-20T07:06:35;1.80;99.90
5919;DHT22;2985;48.142;16.344;2022-11-20T07:11:44;1.80;99.90
5919;DHT22;2985;48.142;16.344;2022-11-20T07:16:54;1.80;99.90
5919;DHT22;2985;48.142;16.344;2022-11-20T07:22:03;1.80;99.90
5919;DHT22;2985;48.142;16.344;2022-11-20T07:27:13;1.80;99.90
5919;DHT22;2985;48.142;16.344;2022-11-20T07:32:23;1.60;99.90
5919;DHT22;2985;48.142;16.344;2022-11-20T07:37:35;1.60;99.90
5919;DHT22;2985;48.142;16.344;2022-11-20T07:42:52;1.60;99.90
5919;DHT22;2985;48.142;16.344;2022-11-20T07:48:02;1.50;99.90
5919;DHT22;2985;48.142;16.344;2022-11-20T07:53:11;1.60;99.90
5919;DHT22;2985;48.142;16.344;2022-11-20T07:58:21;1.60;99.90
5919;DHT22;2985;48.142;16.344;2022-11-20T08:03:31;1.60;99.90
5919;DHT22;2985;48.142;16.344;2022-11-20T08:08:40;1.50;99.90
5919;DHT22;2985;48.142;16.344;2022-11-20T08:13:49;1.50;99.90
5919;DHT22;2985;48.142;16.344;2022-11-20T08:19:18;1.60;99.90
5919;DHT22;2985;48.142;16.344;2022-11-20T08:24:27;1.70;99.90
5919;DHT22;2985;48.142;16.344;2022-11-20T08:29:36;1.80;99.90
5919;DHT22;2985;48.142;16.344;2022-11-20T08:34:45;1.80;99.90
5919;DHT22;2985;48.142;16.344;2022-11-20T08:39:55;1.80;99.90
5919;DHT22;2985;48.142;16.344;2022-11-20T08:45:06;1.80;99.90
5919;DHT22;2985;48.142;16.344;2022-11-20T08:50:16;2.00;99.90
5919;DHT22;2985;48.142;16.344;2022-11-20T08:55:26;2.00;99.90
5919;DHT22;2985;48.142;16.344;2022-11-20T09:00:35;2.10;99.90
5919;DHT22;2985;48.142;16.344;2022-11-20T09:05:44;2.10;99.90
5919;DHT22;2985;48.142;16.344;2022-11-20T09:10:55;2.20;99.90
5919;DHT22;2985;48.142;16.344;2022-11-20T09:16:07;2.20;99.90
5919;DHT22;2985;48.142;16.344;2022-11-20T09:21:16;2.40;99.90
5919;DHT22;2985;48.142;16.344;2022-11-20T09:26:25;2.40;99.90
5919;DHT22;2985;48.142;16.344;2022-11-20T09:31:35;2.50;99.90
5919;DHT22;2985;48.142;16.344;2022-11-20T09:36:45;2.60;99.90
5919;DHT22;2985;48.142;16.344;2022-11-20T09:42:40;2.80;99.90
5919;DHT22;2985;48.142;16.344;2022-11-20T09:53:08;2.90;99.90
5919;DHT22;2985;48.142;16.344;2022-11-20T09:58:41;2.90;99.90
5919;DHT22;2985;48.142;16.344;2022-11-20T10:14:46;3.10;99.90
5919;DHT22;2985;48.142;16.344;2022-11-20T10:26:02;3.20;99.90
5919;DHT22;2985;48.142;16.344;2022-11-20T10:31:24;3.20;99.90
5919;DHT22;2985;48.142;16.344;2022-11-20T10:36:44;3.10;99.90
5919;DHT22;2985;48.142;16.344;2022-11-20T10:41:56;3.30;99.90
5919;DHT22;2985;48.142;16.344;2022-11-20T10:47:14;3.50;99.90
5919;DHT22;2985;48.142;16.344;2022-11-20T11:03:29;3.60;99.90
5919;DHT22;2985;48.142;16.344;2022-11-20T11:08:40;3.90;99.90
5919;DHT22;2985;48.142;16.344;2022-11-20T11:13:50;3.90;99.90
5919;DHT22;2985;48.142;16.344;2022-11-20T11:19:10;4.10;99.90
5919;DHT22;2985;48.142;16.344;2022-11-20T11:24:23;4.30;99.90
5919;DHT22;2985;48.142;16.344;2022-11-20T11:29:33;4.40;99.90
5919;DHT22;2985;48.142;16.344;2022-11-20T11:34:42;4.50;99.90
5919;DHT22;2985;48.142;16.344;2022-11-20T11:39:52;4.30;99.90
5919;DHT22;2985;48.142;16.344;2022-11-20T11:45:01;4.40;99.90
5919;DHT22;2985;48.142;16.344;2022-11-20T11:55:39;4.60;99.90
5919;DHT22;2985;48.142;16.344;2022-11-20T12:00:58;4.80;99.90
5919;DHT22;2985;48.142;16.344;2022-11-20T12:06:16;4.70;99.90
5919;DHT22;2985;48.142;16.344;2022-11-20T12:16:37;4.90;99.90
5919;DHT22;2985;48.142;16.344;2022-11-20T12:43:26;5.50;99.90
5919;DHT22;2985;48.142;16.344;2022-11-20T12:54:39;5.30;99.90
5919;DHT22;2985;48.142;16.344;2022-11-20T13:16:16;5.90;99.90
5919;DHT22;2985;48.142;16.344;2022-11-20T13:21:40;6.10;99.90
5919;DHT22;2985;48.142;16.344;2022-11-20T13:32:21;6.30;99.90
5919;DHT22;2985;48.142;16.344;2022-11-20T13:37:37;6.20;99.90
5919;DHT22;2985;48.142;16.344;2022-11-20T13:48:44;6.40;99.90
5919;DHT22;2985;48.142;16.344;2022-11-20T13:54:07;6.10;99.90
5919;DHT22;2985;48.142;16.344;2022-11-20T14:04:50;6.60;99.90
5919;DHT22;2985;48.142;16.344;2022-11-20T14:10:00;6.60;99.90
5919;DHT22;2985;48.142;16.344;2022-11-20T14:15:25;6.80;99.90
5919;DHT22;2985;48.142;16.344;2022-11-20T14:20:37;6.70;99.90
5919;DHT22;2985;48.142;16.344;2022-11-20T14:25:47;6.40;99.90
5919;DHT22;2985;48.142;16.344;2022-11-20T14:30:57;6.20;99.90
5919;DHT22;2985;48.142;16.344;2022-11-20T14:36:21;6.10;99.90
5919;DHT22;2985;48.142;16.344;2022-11-20T14:41:31;6.00;99.90
5919;DHT22;2985;48.142;16.344;2022-11-20T14:46:42;6.00;99.90
5919;DHT22;2985;48.142;16.344;2022-11-20T14:52:15;5.90;99.90
5919;DHT22;2985;48.142;16.344;2022-11-20T14:57:30;5.80;99.90
5919;DHT22;2985;48.142;16.344;2022-11-20T15:02:48;5.70;99.90
5919;DHT22;2985;48.142;16.344;2022-11-20T15:08:08;5.50;99.90
5919;DHT22;2985;48.142;16.344;2022-11-20T15:13:31;5.40;99.90
5919;DHT22;2985;48.142;16.344;2022-11-20T15:18:41;5.30;99.90
5919;DHT22;2985;48.142;16.344;2022-11-20T15:23:51;5.20;99.90
5919;DHT22;2985;48.142;16.344;2022-11-20T15:29:00;5.00;99.90
5919;DHT22;2985;48.142;16.344;2022-11-20T15:34:16;4.90;99.90
5919;DHT22;2985;48.142;16.344;2022-11-20T15:39:26;4.80;99.90
5919;DHT22;2985;48.142;16.344;2022-11-20T15:44:35;4.70;99.90
5919;DHT22;2985;48.142;16.344;2022-11-20T15:49:45;4.70;99.90
5919;DHT22;2985;48.142;16.344;2022-11-20T15:54:56;4.70;99.90
5919;DHT22;2985;48.142;16.344;2022-11-20T16:00:06;4.60;99.90
5919;DHT22;2985;48.142;16.344;2022-11-20T16:05:16;4.50;99.90
5919;DHT22;2985;48.142;16.344;2022-11-20T16:10:27;4.50;99.90
5919;DHT22;2985;48.142;16.344;2022-11-20T16:15:36;4.40;99.90
5919;DHT22;2985;48.142;16.344;2022-11-20T16:20:55;4.40;99.90
5919;DHT22;2985;48.142;16.344;2022-11-20T16:26:16;4.30;99.90
5919;DHT22;2985;48.142;16.344;2022-11-20T16:31:26;4.10;99.90
5919;DHT22;2985;48.142;16.344;2022-11-20T16:36:40;4.00;99.90
5919;DHT22;2985;48.142;16.344;2022-11-20T16:41:51;4.00;99.90
5919;DHT22;2985;48.142;16.344;2022-11-20T16:47:01;3.90;99.90
5919;DHT22;2985;48.142;16.344;2022-11-20T16:52:12;3.90;99.90
5919;DHT22;2985;48.142;16.344;2022-11-20T16:57:22;4.00;99.90
5919;DHT22;2985;48.142;16.344;2022-11-20T17:02:31;3.90;99.90
5919;DHT22;2985;48.142;16.344;2022-11-20T17:07:41;3.90;99.90
5919;DHT22;2985;48.142;16.344;2022-11-20T17:12:51;3.80;99.90
5919;DHT22;2985;48.142;16.344;2022-11-20T17:18:01;3.80;99.90
5919;DHT22;2985;48.142;16.344;2022-11-20T17:23:11;3.70;99.90
5919;DHT22;2985;48.142;16.344;2022-11-20T17:28:21;3.70;99.90
5919;DHT22;2985;48.142;16.344;2022-11-20T17:33:32;3.60;99.90
5919;DHT22;2985;48.142;16.344;2022-11-20T17:38:43;3.60;99.90
5919;DHT22;2985;48.142;16.344;2022-11-20T17:43:54;3.60;99.90
5919;DHT22;2985;48.142;16.344;2022-11-20T17:49:04;3.50;99.90
5919;DHT22;2985;48.142;16.344;2022-11-20T17:54:15;3.50;99.90
5919;DHT22;2985;48.142;16.344;2022-11-20T17:59:26;3.60;99.90
5919;DHT22;2985;48.142;16.344;2022-11-20T18:04:36;3.60;99.90
5919;DHT22;2985;48.142;16.344;2022-11-20T18:09:45;3.60;99.90
